sensor_id;sensor_type;location;lat;lon;timestamp;pressure;altitude;pressure_sealevel;temperature;humidity
69316;BME280;56445;43.552;5.034;2023-03-05T08:04:04;101372.38;;;14.37;31.92
69316;BME280;56445;43.552;5.034;2023-03-05T08:06:31;101364.53;;;17.97;27.56
69316;BME280;56445;43.552;5.034;2023-03-05T08:08:58;101373.06;;;19.80;25.83
69316;BME280;56445;43.552;5.034;2023-03-05T08:11:25;101385.38;;;20.97;24.97
69316;BME280;56445;43.552;5.034;2023-03-05T08:13:51;101380.28;;;21.64;24.39
69316;BME280;56445;43.552;5.034;2023-03-05T08:16:19;101387.03;;;22.19;24.40
69316;BME280;56445;43.552;5.034;2023-03-05T08:18:46;101404.69;;;22.64;24.08
69316;BME280;56445;43.552;5.034;2023-03-05T08:21:22;101382.97;;;22.83;23.72
69316;BME280;56445;43.552;5.034;2023-03-05T08:23:48;101397.78;;;23.18;23.80
69316;BME280;56445;43.552;5.034;2023-03-05T08:26:18;101394.66;;;23.45;23.75
69316;BME280;56445;43.552;5.034;2023-03-05T08:28:46;101389.63;;;23.68;23.71
69316;BME280;56445;43.552;5.034;2023-03-05T08:31:13;101388.16;;;23.91;23.41
69316;BME280;56445;43.552;5.034;2023-03-05T08:33:40;101389.44;;;24.09;23.31
69316;BME280;56445;43.552;5.034;2023-03-05T08:36:08;101377.50;;;24.19;23.25
69316;BME280;56445;43.552;5.034;2023-03-05T08:38:35;101386.72;;;24.43;23.18
69316;BME280;56445;43.552;5.034;2023-03-05T08:41:02;101385.78;;;24.58;23.07
69316;BME280;56445;43.552;5.034;2023-03-05T08:43:28;101374.66;;;24.68;23.18
69316;BME280;56445;43.552;5.034;2023-03-05T08:45:56;101367.38;;;24.83;23.09
69316;BME280;56445;43.552;5.034;2023-03-05T08:48:24;101362.00;;;24.97;23.06
69316;BME280;56445;43.552;5.034;2023-03-05T08:50:50;101350.34;;;25.00;22.88
69316;BME280;56445;43.552;5.034;2023-03-05T08:53:18;101369.22;;;25.22;22.72
69316;BME280;56445;43.552;5.034;2023-03-05T08:55:53;101370.19;;;25.31;22.64
69316;BME280;56445;43.552;5.034;2023-03-05T08:58:36;101375.81;;;25.45;22.78
69316;BME280;56445;43.552;5.034;2023-03-05T09:01:04;101373.69;;;25.61;22.66
69316;BME280;56445;43.552;5.034;2023-03-05T09:03:31;101368.16;;;25.61;22.54
69316;BME280;56445;43.552;5.034;2023-03-05T09:06:04;101378.97;;;25.81;22.73
69316;BME280;56445;43.552;5.034;2023-03-05T09:08:33;101365.66;;;25.83;22.78
69316;BME280;56445;43.552;5.034;2023-03-05T09:11:04;101364.72;;;25.93;22.75
69316;BME280;56445;43.552;5.034;2023-03-05T09:13:32;101364.78;;;26.07;22.44
69316;BME280;56445;43.552;5.034;2023-03-05T09:16:01;101379.50;;;26.21;22.33
69316;BME280;56445;43.552;5.034;2023-03-05T09:18:32;101375.75;;;26.31;22.64
69316;BME280;56445;43.552;5.034;2023-03-05T09:21:05;101364.00;;;26.39;22.36
69316;BME280;56445;43.552;5.034;2023-03-05T09:23:32;101357.69;;;26.52;22.32
69316;BME280;56445;43.552;5.034;2023-03-05T09:25:59;101365.16;;;26.71;22.38
69316;BME280;56445;43.552;5.034;2023-03-05T09:28:26;101360.78;;;26.84;22.49
69316;BME280;56445;43.552;5.034;2023-03-05T09:31:07;101362.84;;;27.06;22.33
69316;BME280;56445;43.552;5.034;2023-03-05T09:36:54;101380.03;;;27.36;22.24
69316;BME280;56445;43.552;5.034;2023-03-05T09:39:21;101378.06;;;27.50;22.13
69316;BME280;56445;43.552;5.034;2023-03-05T09:51:55;101375.94;;;27.83;21.91
69316;BME280;56445;43.552;5.034;2023-03-05T09:57:50;101375.84;;;28.02;21.91
69316;BME280;56445;43.552;5.034;2023-03-05T10:04:25;101364.63;;;28.30;21.81
69316;BME280;56445;43.552;5.034;2023-03-05T10:07:54;101352.97;;;28.42;21.83
69316;BME280;56445;43.552;5.034;2023-03-05T10:10:42;101363.19;;;29.18;21.69
69316;BME280;56445;43.552;5.034;2023-03-05T10:13:29;101360.94;;;29.86;21.40
69316;BME280;56445;43.552;5.034;2023-03-05T10:28:16;101370.56;;;35.10;21.00
69316;BME280;56445;43.552;5.034;2023-03-05T10:33:49;101363.28;;;34.17;21.07
69316;BME280;56445;43.552;5.034;2023-03-05T10:42:14;101359.88;;;38.24;20.23
69316;BME280;56445;43.552;5.034;2023-03-05T10:44:48;101353.03;;;38.22;19.91
69316;BME280;56445;43.552;5.034;2023-03-05T10:50:24;101349.97;;;39.93;19.81
69316;BME280;56445;43.552;5.034;2023-03-05T10:53:13;101354.22;;;40.78;19.35
69316;BME280;56445;43.552;5.034;2023-03-05T10:55:41;101354.94;;;41.44;19.20
69316;BME280;56445;43.552;5.034;2023-03-05T10:58:13;101356.75;;;42.04;19.16
69316;BME280;56445;43.552;5.034;2023-03-05T11:03:46;101343.44;;;41.94;19.13
69316;BME280;56445;43.552;5.034;2023-03-05T11:06:13;101328.00;;;42.09;19.14
69316;BME280;56445;43.552;5.034;2023-03-05T11:08:41;101337.75;;;42.64;18.75
69316;BME280;56445;43.552;5.034;2023-03-05T11:16:27;101325.53;;;44.43;18.57
69316;BME280;56445;43.552;5.034;2023-03-05T11:19:20;101326.94;;;45.05;18.46
69316;BME280;56445;43.552;5.034;2023-03-05T11:24:38;101309.06;;;45.85;17.95
69316;BME280;56445;43.552;5.034;2023-03-05T11:27:29;101317.34;;;46.32;18.03
69316;BME280;56445;43.552;5.034;2023-03-05T11:29:57;101312.13;;;46.63;18.04
69316;BME280;56445;43.552;5.034;2023-03-05T11:32:26;101299.44;;;46.81;17.51
69316;BME280;56445;43.552;5.034;2023-03-05T11:34:55;101292.41;;;46.98;17.46
69316;BME280;56445;43.552;5.034;2023-03-05T11:37:23;101289.25;;;47.25;17.46
69316;BME280;56445;43.552;5.034;2023-03-05T11:40:19;101285.84;;;47.43;17.40
69316;BME280;56445;43.552;5.034;2023-03-05T11:42:55;101278.16;;;47.70;17.28
69316;BME280;56445;43.552;5.034;2023-03-05T11:45:24;101272.53;;;47.92;17.20
69316;BME280;56445;43.552;5.034;2023-03-05T11:47:54;101269.81;;;48.14;16.70
69316;BME280;56445;43.552;5.034;2023-03-05T11:50:24;101268.38;;;48.44;16.97
69316;BME280;56445;43.552;5.034;2023-03-05T11:53:14;101254.03;;;48.70;17.16
69316;BME280;56445;43.552;5.034;2023-03-05T11:55:51;101254.53;;;48.90;16.54
69316;BME280;56445;43.552;5.034;2023-03-05T11:58:40;101245.06;;;49.02;17.07
69316;BME280;56445;43.552;5.034;2023-03-05T12:01:30;101250.31;;;49.26;16.83
69316;BME280;56445;43.552;5.034;2023-03-05T12:03:57;101239.94;;;49.41;16.86
69316;BME280;56445;43.552;5.034;2023-03-05T12:11:49;101239.81;;;49.86;16.18
69316;BME280;56445;43.552;5.034;2023-03-05T12:14:31;101242.72;;;49.95;16.25
69316;BME280;56445;43.552;5.034;2023-03-05T12:17:12;101235.06;;;50.01;16.22
69316;BME280;56445;43.552;5.034;2023-03-05T12:20:04;101235.41;;;50.03;15.95
69316;BME280;56445;43.552;5.034;2023-03-05T12:22:36;101214.63;;;49.90;16.29
69316;BME280;56445;43.552;5.034;2023-03-05T12:25:34;101232.34;;;49.97;15.96
69316;BME280;56445;43.552;5.034;2023-03-05T12:28:16;101220.38;;;49.90;15.72
69316;BME280;56445;43.552;5.034;2023-03-05T12:33:30;101208.44;;;50.00;15.84
69316;BME280;56445;43.552;5.034;2023-03-05T12:38:44;101194.78;;;50.14;15.95
69316;BME280;56445;43.552;5.034;2023-03-05T12:46:39;101173.91;;;50.59;15.54
69316;BME280;56445;43.552;5.034;2023-03-05T12:51:46;101165.31;;;50.69;15.33
69316;BME280;56445;43.552;5.034;2023-03-05T12:54:56;101163.53;;;50.71;15.33
69316;BME280;56445;43.552;5.034;2023-03-05T12:57:26;101146.47;;;50.68;15.17
69316;BME280;56445;43.552;5.034;2023-03-05T13:00:07;101144.72;;;50.61;15.09
69316;BME280;56445;43.552;5.034;2023-03-05T13:02:40;101149.34;;;50.68;15.06
69316;BME280;56445;43.552;5.034;2023-03-05T13:07:41;101133.41;;;50.67;15.12
69316;BME280;56445;43.552;5.034;2023-03-05T13:10:24;101134.66;;;50.75;14.92
69316;BME280;56445;43.552;5.034;2023-03-05T13:12:53;101128.59;;;50.73;15.08
69316;BME280;56445;43.552;5.034;2023-03-05T13:15:22;101128.91;;;50.84;15.02
69316;BME280;56445;43.552;5.034;2023-03-05T13:18:01;101122.19;;;50.87;15.01
69316;BME280;56445;43.552;5.034;2023-03-05T13:20:40;101118.69;;;50.92;14.77
69316;BME280;56445;43.552;5.034;2023-03-05T13:25:58;101104.97;;;50.87;14.77
69316;BME280;56445;43.552;5.034;2023-03-05T13:28:27;101112.63;;;50.90;14.70
69316;BME280;56445;43.552;5.034;2023-03-05T13:31:01;101090.78;;;50.84;14.68
69316;BME280;56445;43.552;5.034;2023-03-05T13:33:32;101109.28;;;50.92;14.54
69316;BME280;56445;43.552;5.034;2023-03-05T13:36:01;101108.66;;;50.88;14.72
69316;BME280;56445;43.552;5.034;2023-03-05T13:38:38;101087.44;;;50.67;14.27
69316;BME280;56445;43.552;5.034;2023-03-05T13:41:17;101093.22;;;50.57;14.47
69316;BME280;56445;43.552;5.034;2023-03-05T13:43:58;101085.88;;;50.56;14.38
69316;BME280;56445;43.552;5.034;2023-03-05T13:46:28;101080.94;;;50.57;14.42
69316;BME280;56445;43.552;5.034;2023-03-05T13:48:58;101090.00;;;50.65;14.40
69316;BME280;56445;43.552;5.034;2023-03-05T13:51:43;101075.34;;;50.63;14.32
69316;BME280;56445;43.552;5.034;2023-03-05T13:54:15;101070.53;;;50.59;14.45
69316;BME280;56445;43.552;5.034;2023-03-05T13:57:01;101087.78;;;50.59;14.39
69316;BME280;56445;43.552;5.034;2023-03-05T13:59:31;101081.44;;;50.46;14.38
69316;BME280;56445;43.552;5.034;2023-03-05T14:02:03;101080.00;;;50.32;13.93
69316;BME280;56445;43.552;5.034;2023-03-05T14:04:35;101080.66;;;50.09;13.77
69316;BME280;56445;43.552;5.034;2023-03-05T14:07:31;101055.88;;;49.65;14.28
69316;BME280;56445;43.552;5.034;2023-03-05T14:09:59;101065.72;;;49.55;14.16
69316;BME280;56445;43.552;5.034;2023-03-05T14:12:38;101074.31;;;49.55;14.00
69316;BME280;56445;43.552;5.034;2023-03-05T14:18:16;101068.81;;;49.29;14.24
69316;BME280;56445;43.552;5.034;2023-03-05T14:23:50;101061.75;;;49.02;14.33
69316;BME280;56445;43.552;5.034;2023-03-05T14:26:33;101065.47;;;48.90;14.36
69316;BME280;56445;43.552;5.034;2023-03-05T14:29:15;101064.44;;;48.75;14.03
69316;BME280;56445;43.552;5.034;2023-03-05T14:31:58;101054.66;;;48.63;13.94
69316;BME280;56445;43.552;5.034;2023-03-05T14:34:38;101058.66;;;48.43;13.98
69316;BME280;56445;43.552;5.034;2023-03-05T14:37:14;101036.28;;;48.07;13.71
69316;BME280;56445;43.552;5.034;2023-03-05T14:39:55;101039.03;;;47.63;13.79
69316;BME280;56445;43.552;5.034;2023-03-05T14:45:13;101029.72;;;47.24;14.11
69316;BME280;56445;43.552;5.034;2023-03-05T14:47:41;101027.31;;;47.09;14.13
69316;BME280;56445;43.552;5.034;2023-03-05T14:50:14;101010.50;;;46.86;14.09
69316;BME280;56445;43.552;5.034;2023-03-05T14:52:42;101005.69;;;46.70;14.03
69316;BME280;56445;43.552;5.034;2023-03-05T14:55:15;101003.97;;;46.60;13.97
69316;BME280;56445;43.552;5.034;2023-03-05T14:57:42;101012.97;;;46.58;13.98
69316;BME280;56445;43.552;5.034;2023-03-05T15:00:20;101014.50;;;46.34;13.93
69316;BME280;56445;43.552;5.034;2023-03-05T15:02:48;101010.00;;;45.90;13.93
69316;BME280;56445;43.552;5.034;2023-03-05T15:05:18;101007.91;;;45.45;13.91
69316;BME280;56445;43.552;5.034;2023-03-05T15:07:46;101017.56;;;45.15;14.31
69316;BME280;56445;43.552;5.034;2023-03-05T15:10:16;101017.19;;;44.97;14.23
69316;BME280;56445;43.552;5.034;2023-03-05T15:12:44;100994.97;;;44.71;14.04
69316;BME280;56445;43.552;5.034;2023-03-05T15:15:20;101006.28;;;44.55;13.81
69316;BME280;56445;43.552;5.034;2023-03-05T15:17:49;101005.84;;;44.37;13.59
69316;BME280;56445;43.552;5.034;2023-03-05T15:20:23;101007.31;;;44.25;13.77
69316;BME280;56445;43.552;5.034;2023-03-05T15:22:51;101010.97;;;44.02;13.50
69316;BME280;56445;43.552;5.034;2023-03-05T15:25:20;101005.78;;;43.76;13.70
69316;BME280;56445;43.552;5.034;2023-03-05T15:27:48;101006.00;;;43.62;13.73
69316;BME280;56445;43.552;5.034;2023-03-05T15:30:28;101001.06;;;43.43;13.57
69316;BME280;56445;43.552;5.034;2023-03-05T15:32:59;101002.81;;;43.09;13.45
69316;BME280;56445;43.552;5.034;2023-03-05T15:35:26;100987.88;;;42.74;13.57
69316;BME280;56445;43.552;5.034;2023-03-05T15:37:53;100990.50;;;41.86;13.94
69316;BME280;56445;43.552;5.034;2023-03-05T15:40:21;100958.34;;;40.28;14.24
69316;BME280;56445;43.552;5.034;2023-03-05T15:42:48;100990.69;;;39.12;14.51
69316;BME280;56445;43.552;5.034;2023-03-05T15:45:16;100974.91;;;38.05;14.04
69316;BME280;56445;43.552;5.034;2023-03-05T15:47:43;100944.69;;;37.02;14.16
69316;BME280;56445;43.552;5.034;2023-03-05T15:50:10;100950.41;;;36.38;14.37
69316;BME280;56445;43.552;5.034;2023-03-05T15:52:37;100955.78;;;35.93;14.55
69316;BME280;56445;43.552;5.034;2023-03-05T15:55:05;100942.88;;;35.39;14.78
69316;BME280;56445;43.552;5.034;2023-03-05T15:57:36;100944.66;;;35.05;14.72
69316;BME280;56445;43.552;5.034;2023-03-05T16:00:05;100939.69;;;34.75;14.90
69316;BME280;56445;43.552;5.034;2023-03-05T16:02:33;100931.69;;;34.38;14.87
69316;BME280;56445;43.552;5.034;2023-03-05T16:05:00;100927.13;;;33.94;14.85
69316;BME280;56445;43.552;5.034;2023-03-05T16:07:28;100943.53;;;33.45;14.75
69316;BME280;56445;43.552;5.034;2023-03-05T16:09:58;100938.66;;;33.10;15.30
69316;BME280;56445;43.552;5.034;2023-03-05T16:12:28;100922.75;;;32.70;14.80
69316;BME280;56445;43.552;5.034;2023-03-05T16:14:57;100935.03;;;32.53;15.00
69316;BME280;56445;43.552;5.034;2023-03-05T16:17:24;100919.16;;;32.29;15.31
69316;BME280;56445;43.552;5.034;2023-03-05T16:19:53;100928.16;;;32.22;15.26
69316;BME280;56445;43.552;5.034;2023-03-05T16:22:21;100905.97;;;32.01;15.14
69316;BME280;56445;43.552;5.034;2023-03-05T16:24:49;100904.09;;;31.93;15.49
69316;BME280;56445;43.552;5.034;2023-03-05T16:27:16;100920.28;;;31.99;15.25
69316;BME280;56445;43.552;5.034;2023-03-05T16:29:43;100930.28;;;32.00;15.19
69316;BME280;56445;43.552;5.034;2023-03-05T16:32:11;100933.19;;;31.92;15.03
69316;BME280;56445;43.552;5.034;2023-03-05T16:34:38;100936.34;;;31.78;15.42
69316;BME280;56445;43.552;5.034;2023-03-05T16:37:06;100916.81;;;31.53;15.38
69316;BME280;56445;43.552;5.034;2023-03-05T16:39:33;100934.25;;;31.50;15.43
69316;BME280;56445;43.552;5.034;2023-03-05T16:42:00;100925.94;;;31.29;15.63
69316;BME280;56445;43.552;5.034;2023-03-05T16:44:27;100905.63;;;31.16;15.64
69316;BME280;56445;43.552;5.034;2023-03-05T16:46:54;100935.69;;;31.23;15.50
69316;BME280;56445;43.552;5.034;2023-03-05T16:49:22;100916.38;;;31.06;15.43
69316;BME280;56445;43.552;5.034;2023-03-05T16:51:49;100937.38;;;30.91;15.17
69316;BME280;56445;43.552;5.034;2023-03-05T16:54:16;100924.72;;;30.72;15.69
69316;BME280;56445;43.552;5.034;2023-03-05T16:56:43;100939.81;;;30.71;15.54
69316;BME280;56445;43.552;5.034;2023-03-05T16:59:11;100926.34;;;30.61;15.56
69316;BME280;56445;43.552;5.034;2023-03-05T17:01:38;100927.78;;;30.46;15.80
69316;BME280;56445;43.552;5.034;2023-03-05T17:04:05;100938.75;;;30.42;15.80
69316;BME280;56445;43.552;5.034;2023-03-05T17:06:33;100936.06;;;30.34;15.68
69316;BME280;56445;43.552;5.034;2023-03-05T17:09:00;100945.13;;;30.22;15.65
69316;BME280;56445;43.552;5.034;2023-03-05T17:11:28;100931.47;;;30.08;15.70
69316;BME280;56445;43.552;5.034;2023-03-05T17:13:55;100923.25;;;29.91;15.81
69316;BME280;56445;43.552;5.034;2023-03-05T17:16:25;100950.38;;;29.94;15.92
69316;BME280;56445;43.552;5.034;2023-03-05T17:18:53;100941.94;;;29.81;15.40
69316;BME280;56445;43.552;5.034;2023-03-05T17:21:41;100947.34;;;29.78;15.57
69316;BME280;56445;43.552;5.034;2023-03-05T17:24:09;100958.03;;;29.67;15.76
69316;BME280;56445;43.552;5.034;2023-03-05T17:26:36;100959.34;;;29.61;15.69
69316;BME280;56445;43.552;5.034;2023-03-05T17:29:14;100950.22;;;29.52;15.73
69316;BME280;56445;43.552;5.034;2023-03-05T17:31:48;100945.69;;;29.38;15.99
69316;BME280;56445;43.552;5.034;2023-03-05T17:34:16;100948.38;;;29.26;15.62
69316;BME280;56445;43.552;5.034;2023-03-05T17:36:45;100935.97;;;29.15;15.97
69316;BME280;56445;43.552;5.034;2023-03-05T17:39:16;100949.38;;;29.13;15.98
69316;BME280;56445;43.552;5.034;2023-03-05T17:41:46;100941.22;;;28.99;15.87
69316;BME280;56445;43.552;5.034;2023-03-05T17:44:13;100936.34;;;28.96;16.03
69316;BME280;56445;43.552;5.034;2023-03-05T17:46:40;100935.69;;;28.90;15.96
69316;BME280;56445;43.552;5.034;2023-03-05T17:49:07;100943.38;;;28.84;16.19
69316;BME280;56445;43.552;5.034;2023-03-05T17:51:34;100955.78;;;28.87;16.09
69316;BME280;56445;43.552;5.034;2023-03-05T17:54:04;100932.28;;;28.67;16.12
69316;BME280;56445;43.552;5.034;2023-03-05T17:56:31;100959.41;;;28.70;16.16
69316;BME280;56445;43.552;5.034;2023-03-05T17:58:58;100956.47;;;28.58;16.12
69316;BME280;56445;43.552;5.034;2023-03-05T18:01:31;100960.22;;;28.53;16.13
69316;BME280;56445;43.552;5.034;2023-03-05T18:03:59;100953.34;;;28.42;16.20
69316;BME280;56445;43.552;5.034;2023-03-05T18:06:26;100953.63;;;28.32;16.26
69316;BME280;56445;43.552;5.034;2023-03-05T18:08:54;100959.84;;;28.28;16.36
69316;BME280;56445;43.552;5.034;2023-03-05T18:11:21;100951.19;;;28.13;16.11
69316;BME280;56445;43.552;5.034;2023-03-05T18:13:49;100966.34;;;28.15;16.35
69316;BME280;56445;43.552;5.034;2023-03-05T18:16:16;100969.13;;;28.06;16.23
69316;BME280;56445;43.552;5.034;2023-03-05T18:18:44;100973.50;;;27.99;16.48
69316;BME280;56445;43.552;5.034;2023-03-05T18:21:11;100975.91;;;27.92;16.21
69316;BME280;56445;43.552;5.034;2023-03-05T18:23:38;100969.00;;;27.80;16.20
69316;BME280;56445;43.552;5.034;2023-03-05T18:26:05;100966.03;;;27.68;16.22
69316;BME280;56445;43.552;5.034;2023-03-05T18:28:34;100975.63;;;27.62;16.53
69316;BME280;56445;43.552;5.034;2023-03-05T18:31:02;100979.19;;;27.54;16.39
69316;BME280;56445;43.552;5.034;2023-03-05T18:33:29;100974.41;;;27.45;16.52
69316;BME280;56445;43.552;5.034;2023-03-05T18:35:56;100982.84;;;27.40;16.34
69316;BME280;56445;43.552;5.034;2023-03-05T18:38:26;100980.56;;;27.34;16.69
69316;BME280;56445;43.552;5.034;2023-03-05T18:40:55;100992.75;;;27.33;16.68
69316;BME280;56445;43.552;5.034;2023-03-05T18:43:23;100976.69;;;27.21;16.61
69316;BME280;56445;43.552;5.034;2023-03-05T18:45:52;100996.56;;;27.23;16.72
69316;BME280;56445;43.552;5.034;2023-03-05T18:48:20;100979.22;;;27.08;16.75
69316;BME280;56445;43.552;5.034;2023-03-05T18:50:49;100984.97;;;27.12;16.68
69316;BME280;56445;43.552;5.034;2023-03-05T18:53:17;100970.03;;;26.99;16.63
69316;BME280;56445;43.552;5.034;2023-03-05T18:55:44;100979.69;;;27.02;16.70
69316;BME280;56445;43.552;5.034;2023-03-05T18:58:11;100963.63;;;26.90;16.76
69316;BME280;56445;43.552;5.034;2023-03-05T19:00:42;100968.19;;;26.86;16.86
69316;BME280;56445;43.552;5.034;2023-03-05T19:03:11;100959.97;;;26.81;16.76
69316;BME280;56445;43.552;5.034;2023-03-05T19:05:39;100970.94;;;26.86;16.97
69316;BME280;56445;43.552;5.034;2023-03-05T19:08:06;100959.09;;;26.71;16.95
69316;BME280;56445;43.552;5.034;2023-03-05T19:10:34;100959.09;;;26.71;16.75
69316;BME280;56445;43.552;5.034;2023-03-05T19:13:04;100972.94;;;26.71;16.80
69316;BME280;56445;43.552;5.034;2023-03-05T19:15:41;100968.78;;;26.60;16.70
69316;BME280;56445;43.552;5.034;2023-03-05T19:18:09;100983.94;;;26.63;16.88
69316;BME280;56445;43.552;5.034;2023-03-05T19:20:36;100977.59;;;26.62;17.03
69316;BME280;56445;43.552;5.034;2023-03-05T19:23:03;100973.59;;;26.55;16.69
69316;BME280;56445;43.552;5.034;2023-03-05T19:25:30;100973.91;;;26.53;16.97
69316;BME280;56445;43.552;5.034;2023-03-05T19:27:57;100959.91;;;26.36;16.97
69316;BME280;56445;43.552;5.034;2023-03-05T19:30:24;100966.59;;;26.35;17.04
69316;BME280;56445;43.552;5.034;2023-03-05T19:32:51;100972.63;;;26.37;16.92
69316;BME280;56445;43.552;5.034;2023-03-05T19:35:18;100964.56;;;26.26;17.16
69316;BME280;56445;43.552;5.034;2023-03-05T19:37:47;100961.88;;;26.21;17.22
69316;BME280;56445;43.552;5.034;2023-03-05T19:40:14;100966.97;;;26.28;17.18
69316;BME280;56445;43.552;5.034;2023-03-05T19:42:41;100952.06;;;26.15;16.91
69316;BME280;56445;43.552;5.034;2023-03-05T19:45:09;100956.88;;;26.09;17.27
69316;BME280;56445;43.552;5.034;2023-03-05T19:47:36;100964.25;;;26.14;17.22
69316;BME280;56445;43.552;5.034;2023-03-05T19:50:04;100984.63;;;26.18;17.10
69316;BME280;56445;43.552;5.034;2023-03-05T19:52:32;100985.25;;;26.15;17.06
69316;BME280;56445;43.552;5.034;2023-03-05T19:54:59;100987.31;;;26.09;17.19
69316;BME280;56445;43.552;5.034;2023-03-05T19:57:27;100962.94;;;25.98;16.96
69316;BME280;56445;43.552;5.034;2023-03-05T19:59:55;100966.00;;;25.96;16.97
69316;BME280;56445;43.552;5.034;2023-03-05T20:02:22;100983.09;;;25.98;17.18
69316;BME280;56445;43.552;5.034;2023-03-05T20:04:49;100993.06;;;25.99;17.08
69316;BME280;56445;43.552;5.034;2023-03-05T20:07:16;100982.78;;;25.86;17.31
69316;BME280;56445;43.552;5.034;2023-03-05T20:09:44;100981.34;;;25.88;17.05
69316;BME280;56445;43.552;5.034;2023-03-05T20:12:11;100998.78;;;25.89;17.22
69316;BME280;56445;43.552;5.034;2023-03-05T20:14:38;100974.41;;;25.77;17.24
69316;BME280;56445;43.552;5.034;2023-03-05T20:17:06;100984.00;;;25.80;17.20
69316;BME280;56445;43.552;5.034;2023-03-05T20:19:33;100972.53;;;25.72;17.24
69316;BME280;56445;43.552;5.034;2023-03-05T20:22:02;100968.53;;;25.65;17.48
69316;BME280;56445;43.552;5.034;2023-03-05T20:24:30;100975.81;;;25.61;17.30
69316;BME280;56445;43.552;5.034;2023-03-05T20:26:57;100991.16;;;25.67;17.21
69316;BME280;56445;43.552;5.034;2023-03-05T20:29:25;100968.22;;;25.52;17.30
69316;BME280;56445;43.552;5.034;2023-03-05T20:31:52;100968.66;;;25.46;17.55
69316;BME280;56445;43.552;5.034;2023-03-05T20:34:25;100976.41;;;25.44;17.30
69316;BME280;56445;43.552;5.034;2023-03-05T20:36:53;100981.22;;;25.38;17.40
69316;BME280;56445;43.552;5.034;2023-03-05T20:39:20;100979.88;;;25.36;17.64
